createdAt,value
2023-05-30T00:01:52.242Z,19.06
2023-05-30T00:04:21.388Z,19.37
2023-05-30T00:06:50.355Z,19.40
2023-05-30T00:09:18.339Z,20.02
2023-05-30T00:11:46.215Z,19.80
2023-05-30T00:14:21.666Z,19.57
2023-05-30T00:16:49.789Z,19.25
2023-05-30T00:19:17.673Z,19.80
2023-05-30T00:21:47.112Z,19.76
2023-05-30T00:24:14.976Z,19.61
2023-05-30T00:26:42.850Z,19.10
2023-05-30T00:29:10.927Z,19.86
2023-05-30T00:31:42.379Z,19.01
2023-05-30T00:34:10.675Z,19.84
2023-05-30T00:36:40.015Z,20.20
2023-05-30T00:39:08.107Z,19.30
2023-05-30T00:41:38.609Z,19.33
2023-05-30T00:44:06.686Z,20.53
2023-05-30T00:46:34.876Z,19.95
2023-05-30T00:49:04.261Z,19.90
2023-05-30T00:51:33.672Z,19.62
2023-05-30T00:54:03.470Z,18.56
2023-05-30T00:56:32.494Z,19.46
2023-05-30T00:59:01.157Z,19.67
2023-05-30T01:01:30.469Z,19.05
2023-05-30T01:03:58.639Z,19.35
2023-05-30T01:06:30.678Z,19.67
2023-05-30T01:09:00.328Z,19.12
2023-05-30T01:11:36.757Z,18.90
2023-05-30T01:14:11.215Z,18.98
2023-05-30T01:16:45.355Z,18.17
2023-05-30T01:19:35.061Z,18.94
2023-05-30T01:22:17.682Z,19.07
2023-05-30T01:24:59.408Z,18.76
2023-05-30T01:27:42.009Z,19.04
2023-05-30T01:30:12.505Z,18.29
2023-05-30T01:32:40.785Z,19.08
2023-05-30T01:35:23.173Z,18.99
2023-05-30T01:37:52.363Z,19.74
2023-05-30T01:40:24.911Z,19.00
2023-05-30T01:43:01.714Z,18.60
2023-05-30T01:45:41.262Z,19.27
2023-05-30T01:48:16.858Z,18.65
2023-05-30T01:50:50.292Z,18.63
2023-05-30T01:53:24.493Z,18.24
2023-05-30T01:55:57.014Z,18.51
2023-05-30T01:58:25.746Z,19.05
2023-05-30T02:00:56.057Z,18.11
2023-05-30T02:03:25.992Z,19.01
2023-05-30T02:05:54.173Z,19.27
2023-05-30T02:08:22.122Z,19.32
2023-05-30T02:10:50.128Z,18.87
2023-05-30T02:13:20.277Z,18.67
2023-05-30T02:15:48.180Z,18.51
2023-05-30T02:18:18.407Z,18.66
2023-05-30T02:20:46.695Z,18.35
2023-05-30T02:23:14.962Z,19.12
2023-05-30T02:25:42.888Z,18.94
2023-05-30T02:28:10.932Z,18.98
2023-05-30T02:30:39.321Z,18.97
2023-05-30T02:33:07.622Z,19.39
2023-05-30T02:35:38.502Z,19.55
2023-05-30T02:38:06.650Z,18.29
2023-05-30T02:40:34.748Z,19.25
2023-05-30T02:43:09.679Z,18.55
2023-05-30T02:45:45.452Z,18.69
2023-05-30T02:48:14.570Z,19.37
2023-05-30T02:50:44.535Z,17.97
2023-05-30T02:53:18.353Z,18.43
2023-05-30T02:55:47.935Z,18.75
2023-05-30T02:58:37.997Z,17.64
2023-05-30T03:01:13.046Z,18.65
2023-05-30T03:03:42.901Z,18.85
2023-05-30T03:06:32.224Z,18.78
2023-05-30T03:09:12.252Z,18.65
2023-05-30T03:11:40.256Z,18.95
2023-05-30T03:14:08.596Z,19.03
2023-05-30T03:16:37.713Z,18.87
2023-05-30T03:19:08.212Z,18.52
2023-05-30T03:21:39.112Z,18.92
2023-05-30T03:24:08.236Z,18.19
2023-05-30T03:26:42.868Z,18.84
2023-05-30T03:29:11.488Z,17.81
2023-05-30T03:31:39.567Z,18.35
2023-05-30T03:34:09.304Z,18.93
2023-05-30T03:36:39.249Z,18.81
2023-05-30T03:39:07.558Z,18.52
2023-05-30T03:41:35.682Z,19.05
2023-05-30T03:44:03.871Z,18.26
2023-05-30T03:46:33.061Z,18.80
2023-05-30T03:49:01.233Z,19.28
2023-05-30T03:51:29.666Z,18.19
2023-05-30T03:53:58.918Z,19.29
2023-05-30T03:56:27.854Z,18.96
2023-05-30T03:58:55.706Z,20.02
2023-05-30T04:01:24.460Z,19.11
2023-05-30T04:03:52.558Z,19.72
2023-05-30T04:06:20.441Z,18.99
2023-05-30T04:08:48.279Z,19.80
2023-05-30T04:11:19.337Z,20.50
2023-05-30T04:13:47.266Z,20.81
2023-05-30T04:16:16.246Z,20.85
2023-05-30T04:18:47.040Z,20.68
2023-05-30T04:21:15.505Z,20.64
2023-05-30T04:23:45.051Z,19.82
2023-05-30T04:26:13.283Z,19.49
2023-05-30T04:28:43.140Z,19.73
2023-05-30T04:31:20.431Z,19.77
2023-05-30T04:33:51.672Z,19.49
2023-05-30T04:36:20.724Z,18.44
2023-05-30T04:38:53.436Z,19.50
2023-05-30T04:41:25.904Z,19.33
2023-05-30T04:43:58.453Z,19.91
2023-05-30T04:46:28.905Z,19.75
2023-05-30T04:49:02.097Z,19.50
2023-05-30T04:51:31.788Z,19.91
2023-05-30T04:54:01.476Z,20.32
2023-05-30T04:56:29.440Z,20.63
2023-05-30T04:58:58.945Z,19.29
2023-05-30T05:01:26.952Z,18.85
2023-05-30T05:03:55.230Z,17.35
2023-05-30T05:06:23.245Z,17.66
2023-05-30T05:08:51.194Z,17.24
2023-05-30T05:11:19.173Z,18.59
2023-05-30T05:13:47.182Z,17.34
2023-05-30T05:16:16.498Z,18.74
2023-05-30T05:18:44.820Z,19.15
2023-05-30T05:21:12.726Z,18.04
2023-05-30T05:23:41.174Z,17.56
2023-05-30T05:26:09.168Z,17.17
2023-05-30T05:28:37.106Z,18.50
2023-05-30T05:31:05.094Z,18.85
2023-05-30T05:33:34.339Z,17.99
2023-05-30T05:36:03.419Z,17.47
2023-05-30T05:38:31.343Z,18.34
2023-05-30T05:40:59.426Z,19.21
2023-05-30T05:43:27.532Z,18.81
2023-05-30T05:45:56.707Z,18.11
2023-05-30T05:48:24.786Z,18.79
2023-05-30T05:50:54.103Z,18.56
2023-05-30T05:53:22.173Z,19.55
2023-05-30T05:55:49.989Z,19.56
2023-05-30T05:58:17.953Z,21.21
2023-05-30T06:00:46.001Z,17.93
2023-05-30T06:03:14.058Z,18.54
2023-05-30T06:05:42.099Z,18.53
2023-05-30T06:08:11.325Z,19.18
2023-05-30T06:10:39.279Z,19.14
2023-05-30T06:13:09.558Z,18.81
2023-05-30T06:15:37.665Z,19.28
2023-05-30T06:18:06.167Z,19.67
2023-05-30T06:20:34.268Z,19.22
2023-05-30T06:23:02.195Z,19.22
2023-05-30T06:25:32.350Z,18.11
2023-05-30T06:28:00.219Z,20.29
2023-05-30T06:30:28.084Z,21.82
2023-05-30T06:32:56.074Z,20.93
2023-05-30T06:35:24.008Z,20.12
2023-05-30T06:37:51.977Z,20.78
2023-05-30T06:40:20.051Z,22.25
2023-05-30T06:42:50.192Z,21.88
2023-05-30T06:45:20.608Z,19.82
2023-05-30T06:47:49.073Z,19.59
2023-05-30T06:50:17.014Z,21.06
2023-05-30T06:52:44.897Z,19.97
2023-05-30T06:55:13.383Z,20.33
2023-05-30T06:57:41.293Z,21.68
2023-05-30T07:00:12.088Z,22.30
2023-05-30T07:02:40.152Z,20.39
2023-05-30T07:05:08.894Z,20.74
2023-05-30T07:07:37.888Z,21.91
2023-05-30T07:10:06.838Z,22.93
2023-05-30T07:12:35.022Z,22.20
2023-05-30T07:15:03.986Z,22.21
2023-05-30T07:17:33.242Z,24.12
2023-05-30T07:20:01.062Z,21.73
2023-05-30T07:22:28.876Z,20.73
2023-05-30T07:24:56.729Z,20.93
2023-05-30T07:27:24.503Z,22.53
2023-05-30T07:29:52.368Z,20.84
2023-05-30T07:32:20.252Z,22.80
2023-05-30T07:34:49.474Z,24.38
2023-05-30T07:37:17.387Z,24.42
2023-05-30T07:39:45.641Z,20.51
2023-05-30T07:42:13.622Z,20.74
2023-05-30T07:44:41.659Z,22.35
2023-05-30T07:47:09.680Z,24.39
2023-05-30T07:49:37.540Z,24.33
2023-05-30T07:52:07.128Z,24.14
2023-05-30T07:54:35.092Z,24.44
2023-05-30T07:57:03.106Z,23.78
2023-05-30T07:59:31.035Z,21.51
2023-05-30T08:02:59.037Z,22.47
2023-05-30T08:05:32.830Z,20.79
2023-05-30T08:08:02.020Z,21.43
2023-05-30T08:10:29.825Z,20.37
2023-05-30T08:12:57.618Z,22.28
2023-05-30T08:15:25.797Z,24.12
2023-05-30T08:17:54.582Z,24.49
2023-05-30T08:20:22.547Z,25.38
2023-05-30T08:22:51.205Z,25.45
2023-05-30T08:25:22.903Z,24.60
2023-05-30T08:27:50.893Z,23.88
2023-05-30T08:30:18.997Z,25.49
2023-05-30T08:32:47.120Z,26.28
2023-05-30T08:35:15.114Z,23.61
2023-05-30T08:37:44.788Z,22.44
2023-05-30T08:40:14.983Z,24.68
2023-05-30T08:42:44.802Z,24.49
2023-05-30T08:45:13.439Z,24.13
2023-05-30T08:47:41.818Z,22.36
2023-05-30T08:50:13.312Z,22.25
2023-05-30T08:52:44.847Z,22.87
2023-05-30T08:55:14.198Z,22.09
2023-05-30T08:57:51.993Z,22.37
2023-05-30T09:00:20.353Z,22.31
2023-05-30T09:02:48.411Z,24.00
2023-05-30T09:05:18.025Z,24.21
2023-05-30T09:07:46.941Z,23.94
2023-05-30T09:10:15.322Z,23.58
2023-05-30T09:12:44.157Z,22.63
2023-05-30T09:15:13.726Z,23.15
2023-05-30T09:17:41.697Z,24.72
2023-05-30T09:20:10.647Z,25.88
2023-05-30T09:22:39.142Z,24.96
2023-05-30T09:25:07.735Z,25.40
2023-05-30T09:27:37.395Z,25.11
2023-05-30T09:30:09.225Z,25.14
2023-05-30T09:32:39.903Z,24.02
2023-05-30T09:35:21.385Z,23.62
2023-05-30T09:37:49.696Z,23.54
2023-05-30T09:40:17.946Z,24.74
2023-05-30T09:42:49.385Z,22.90
2023-05-30T09:45:20.124Z,22.20
2023-05-30T09:47:51.296Z,24.42
2023-05-30T09:50:21.102Z,25.16
2023-05-30T09:52:49.890Z,23.50
2023-05-30T09:55:18.287Z,23.86
2023-05-30T09:57:50.570Z,24.02
2023-05-30T10:00:24.049Z,23.34
2023-05-30T10:02:56.802Z,25.66
2023-05-30T10:05:26.295Z,22.66
2023-05-30T10:07:55.755Z,24.52
2023-05-30T10:10:24.172Z,23.72
2023-05-30T10:12:53.896Z,22.24
2023-05-30T10:15:24.507Z,24.69
2023-05-30T10:17:57.792Z,23.72
2023-05-30T10:20:28.754Z,22.73
2023-05-30T10:22:58.401Z,23.50
2023-05-30T10:25:30.093Z,24.37
2023-05-30T10:28:02.304Z,24.19
2023-05-30T10:30:31.983Z,23.39
2023-05-30T10:33:05.208Z,23.86
2023-05-30T10:35:35.802Z,23.24
2023-05-30T10:38:07.827Z,22.97
2023-05-30T10:40:54.811Z,25.12
2023-05-30T10:43:35.086Z,24.70
2023-05-30T10:46:16.725Z,25.05
2023-05-30T10:48:52.509Z,25.31
2023-05-30T10:51:21.334Z,25.35
2023-05-30T10:53:53.504Z,25.63
2023-05-30T10:56:42.724Z,25.15
2023-05-30T10:59:15.453Z,24.79
2023-05-30T11:01:43.735Z,24.85
2023-05-30T11:04:14.781Z,24.46
2023-05-30T11:06:45.906Z,25.21
2023-05-30T11:09:16.025Z,23.14
2023-05-30T11:11:45.640Z,24.76
2023-05-30T11:14:14.977Z,24.42
2023-05-30T11:16:50.535Z,24.69
2023-05-30T11:19:22.214Z,23.67
2023-05-30T11:21:57.380Z,25.19
2023-05-30T11:24:25.925Z,24.43
2023-05-30T11:26:54.882Z,24.86
2023-05-30T11:29:37.533Z,26.17
2023-05-30T11:32:09.183Z,27.31
2023-05-30T11:34:39.075Z,24.17
2023-05-30T11:37:08.141Z,24.01
2023-05-30T11:39:37.308Z,23.83
2023-05-30T11:42:06.736Z,24.40
2023-05-30T11:44:34.760Z,24.06
2023-05-30T11:47:04.747Z,24.88
2023-05-30T11:49:33.648Z,24.58
2023-05-30T11:52:03.048Z,24.32
2023-05-30T11:54:31.129Z,25.32
2023-05-30T11:56:59.200Z,26.91
2023-05-30T11:59:29.140Z,27.48
2023-05-30T12:01:59.024Z,24.88
2023-05-30T12:04:28.335Z,24.24
2023-05-30T12:07:00.203Z,24.58
2023-05-30T12:09:30.023Z,26.45
2023-05-30T12:11:59.817Z,25.83
2023-05-30T12:14:41.054Z,25.33
2023-05-30T12:17:14.251Z,26.88
2023-05-30T12:19:44.018Z,27.50
2023-05-30T12:22:12.880Z,27.29
2023-05-30T12:24:42.240Z,26.49
2023-05-30T12:27:18.501Z,26.61
2023-05-30T12:29:46.647Z,26.45
2023-05-30T12:32:14.829Z,27.37
2023-05-30T12:34:44.942Z,25.64
2023-05-30T12:37:14.600Z,25.64
2023-05-30T12:39:49.098Z,26.41
2023-05-30T12:42:23.010Z,26.15
2023-05-30T12:44:52.167Z,22.88
2023-05-30T12:47:20.108Z,24.71
2023-05-30T12:49:48.379Z,24.91
2023-05-30T12:52:17.403Z,25.88
2023-05-30T12:54:46.473Z,27.97
2023-05-30T12:57:16.313Z,24.00
2023-05-30T12:59:44.154Z,26.18
2023-05-30T13:02:12.878Z,27.38
2023-05-30T13:04:41.743Z,24.49
2023-05-30T13:07:11.043Z,24.07
2023-05-30T13:09:39.477Z,25.09
2023-05-30T13:12:10.095Z,28.02
2023-05-30T13:14:40.020Z,28.97
2023-05-30T13:17:08.992Z,27.65
2023-05-30T13:19:37.199Z,27.18
2023-05-30T13:22:06.259Z,26.18
2023-05-30T13:24:34.458Z,25.25
2023-05-30T13:27:03.023Z,24.97
2023-05-30T13:29:31.043Z,26.62
2023-05-30T13:32:01.046Z,27.84
2023-05-30T13:34:29.664Z,24.92
2023-05-30T13:36:57.799Z,25.34
2023-05-30T13:39:26.590Z,24.34
2023-05-30T13:41:54.608Z,25.23
2023-05-30T13:44:22.609Z,27.28
2023-05-30T13:46:50.596Z,27.85
2023-05-30T13:49:23.094Z,26.87
2023-05-30T13:51:51.107Z,27.91
2023-05-30T13:54:19.067Z,26.03
2023-05-30T13:56:47.029Z,27.57
2023-05-30T13:59:15.107Z,27.87
2023-05-30T14:01:43.336Z,26.85
2023-05-30T14:04:12.017Z,25.51
2023-05-30T14:06:41.522Z,25.32
2023-05-30T14:09:09.508Z,26.22
2023-05-30T14:11:38.048Z,27.79
2023-05-30T14:14:06.793Z,27.49
2023-05-30T14:16:35.123Z,26.43
2023-05-30T14:19:05.566Z,24.89
2023-05-30T14:21:35.928Z,25.18
2023-05-30T14:24:07.433Z,25.91
2023-05-30T14:26:35.728Z,25.17
2023-05-30T14:29:04.904Z,25.96
2023-05-30T14:31:32.992Z,25.87
2023-05-30T14:34:01.010Z,26.77
2023-05-30T14:36:29.225Z,27.45
2023-05-30T14:38:57.202Z,26.83
2023-05-30T14:41:26.905Z,25.88
2023-05-30T14:43:54.955Z,27.88
2023-05-30T14:46:23.173Z,28.56
2023-05-30T14:48:51.240Z,30.64
2023-05-30T14:51:19.342Z,34.71
2023-05-30T14:53:48.125Z,29.64
2023-05-30T14:56:16.444Z,32.66
2023-05-30T14:58:46.011Z,28.98
2023-05-30T15:01:31.689Z,31.48
2023-05-30T15:04:02.280Z,30.03
2023-05-30T15:06:30.401Z,34.54
2023-05-30T15:08:58.852Z,33.76
2023-05-30T15:11:27.510Z,33.28
2023-05-30T15:13:57.463Z,35.00
2023-05-30T15:16:27.227Z,33.24
2023-05-30T15:18:55.686Z,32.66
2023-05-30T15:21:28.382Z,31.51
2023-05-30T15:23:56.458Z,34.56
2023-05-30T15:26:25.118Z,33.22
2023-05-30T15:28:53.092Z,33.52
2023-05-30T15:31:24.964Z,32.48
2023-05-30T15:33:53.304Z,31.75
2023-05-30T15:36:22.045Z,34.94
2023-05-30T15:38:50.162Z,35.16
2023-05-30T15:41:18.329Z,33.76
2023-05-30T15:43:46.236Z,33.06
2023-05-30T15:46:18.846Z,33.80
2023-05-30T15:48:48.612Z,32.24
2023-05-30T15:51:16.666Z,30.76
2023-05-30T15:53:44.579Z,31.90
2023-05-30T15:56:13.336Z,32.49
2023-05-30T15:58:56.980Z,32.45
2023-05-30T16:01:25.075Z,29.73
2023-05-30T16:03:57.744Z,30.18
2023-05-30T16:06:26.086Z,30.79
2023-05-30T16:08:53.996Z,32.03
2023-05-30T16:11:22.119Z,31.25
2023-05-30T16:13:50.533Z,30.97
2023-05-30T16:16:18.767Z,31.73
2023-05-30T16:18:46.716Z,32.83
2023-05-30T16:21:16.051Z,32.49
2023-05-30T16:23:44.226Z,32.66
2023-05-30T16:26:12.407Z,29.09
2023-05-30T16:28:40.469Z,28.88
2023-05-30T16:31:09.655Z,27.77
2023-05-30T16:33:37.893Z,30.77
2023-05-30T16:36:08.028Z,30.70
2023-05-30T16:38:39.504Z,31.66
2023-05-30T16:41:13.338Z,29.82
2023-05-30T16:43:43.289Z,28.40
2023-05-30T16:46:14.392Z,28.68
2023-05-30T16:48:42.422Z,28.22
2023-05-30T16:51:10.812Z,29.72
2023-05-30T16:53:40.502Z,28.50
2023-05-30T16:56:16.349Z,29.88
2023-05-30T16:58:45.481Z,28.26
2023-05-30T17:01:13.991Z,30.75
2023-05-30T17:03:42.511Z,30.09
2023-05-30T17:06:11.513Z,27.97
2023-05-30T17:08:42.345Z,27.27
2023-05-30T17:11:12.073Z,28.37
2023-05-30T17:13:40.503Z,27.76
2023-05-30T17:16:09.237Z,26.66
2023-05-30T17:18:37.201Z,26.31
2023-05-30T17:21:05.812Z,27.10
2023-05-30T17:23:34.613Z,26.10
2023-05-30T17:26:04.439Z,26.62
2023-05-30T17:28:34.618Z,25.91
2023-05-30T17:31:03.173Z,26.17
2023-05-30T17:33:31.827Z,26.41
2023-05-30T17:35:59.912Z,25.65
2023-05-30T17:38:28.351Z,25.36
2023-05-30T17:40:56.647Z,25.92
2023-05-30T17:43:26.271Z,26.77
2023-05-30T17:45:54.341Z,25.66
2023-05-30T17:48:22.643Z,25.33
2023-05-30T17:50:51.492Z,25.85
2023-05-30T17:53:19.936Z,26.38
2023-05-30T17:55:48.506Z,26.14
2023-05-30T17:58:17.291Z,26.17
2023-05-30T18:00:48.065Z,25.87
2023-05-30T18:03:16.765Z,26.54
2023-05-30T18:05:45.004Z,25.81
2023-05-30T18:08:16.442Z,26.03
2023-05-30T18:10:46.212Z,25.03
2023-05-30T18:13:15.205Z,25.48
2023-05-30T18:15:50.342Z,25.34
2023-05-30T18:18:18.700Z,25.70
2023-05-30T18:20:46.668Z,25.04
2023-05-30T18:23:19.981Z,25.54
2023-05-30T18:25:48.527Z,25.15
2023-05-30T18:28:16.949Z,25.35
2023-05-30T18:30:46.698Z,25.26
2023-05-30T18:33:14.782Z,25.72
2023-05-30T18:35:42.804Z,25.98
2023-05-30T18:38:10.856Z,25.95
2023-05-30T18:40:39.327Z,25.11
2023-05-30T18:43:07.639Z,25.42
2023-05-30T18:45:36.195Z,25.02
2023-05-30T18:48:05.864Z,25.69
2023-05-30T18:50:35.062Z,25.27
2023-05-30T18:53:03.082Z,25.26
2023-05-30T18:55:31.200Z,25.15
2023-05-30T18:57:59.331Z,24.59
2023-05-30T19:00:27.682Z,25.11
2023-05-30T19:02:58.112Z,25.44
2023-05-30T19:05:27.805Z,24.93
2023-05-30T19:07:56.904Z,25.10
2023-05-30T19:10:25.124Z,24.46
2023-05-30T19:12:54.292Z,25.04
2023-05-30T19:15:22.295Z,25.06
2023-05-30T19:18:04.336Z,24.90
2023-05-30T19:20:34.129Z,24.84
2023-05-30T19:23:02.429Z,24.28
2023-05-30T19:25:30.883Z,24.62
2023-05-30T19:28:06.988Z,24.46
2023-05-30T19:30:35.592Z,24.20
2023-05-30T19:33:04.967Z,24.62
2023-05-30T19:35:34.615Z,25.48
2023-05-30T19:38:02.741Z,24.90
2023-05-30T19:40:32.153Z,25.21
2023-05-30T19:43:00.342Z,25.12
2023-05-30T19:45:29.103Z,24.83
2023-05-30T19:47:56.978Z,24.36
2023-05-30T19:50:27.390Z,24.56
2023-05-30T19:52:58.156Z,24.93
2023-05-30T19:55:28.785Z,24.48
2023-05-30T19:57:56.768Z,24.73
2023-05-30T20:00:27.220Z,23.72
2023-05-30T20:02:55.970Z,23.73
2023-05-30T20:05:23.962Z,23.64
2023-05-30T20:07:51.839Z,24.50
2023-05-30T20:10:27.159Z,23.92
2023-05-30T20:13:00.622Z,23.59
2023-05-30T20:15:28.852Z,23.86
2023-05-30T20:17:59.330Z,23.70
2023-05-30T20:20:27.704Z,24.31
2023-05-30T20:22:57.407Z,23.98
2023-05-30T20:25:27.534Z,23.96
2023-05-30T20:27:55.626Z,23.72
2023-05-30T20:30:23.717Z,24.16
2023-05-30T20:32:51.954Z,23.86
2023-05-30T20:35:20.490Z,23.61
2023-05-30T20:37:48.681Z,24.38
2023-05-30T20:40:16.810Z,24.03
2023-05-30T20:42:46.305Z,24.24
2023-05-30T20:45:14.419Z,24.53
2023-05-30T20:47:42.743Z,24.85
2023-05-30T20:50:16.521Z,24.06
2023-05-30T20:52:44.646Z,23.74
2023-05-30T20:55:12.715Z,24.51
2023-05-30T20:57:40.751Z,24.23
2023-05-30T21:00:11.682Z,23.90
2023-05-30T21:02:39.698Z,24.47
2023-05-30T21:05:09.527Z,24.28
2023-05-30T21:07:37.745Z,23.58
2023-05-30T21:10:06.839Z,24.00
2023-05-30T21:12:34.699Z,24.40
2023-05-30T21:15:02.750Z,24.17
2023-05-30T21:17:32.120Z,23.11
2023-05-30T21:20:00.241Z,23.24
2023-05-30T21:22:30.597Z,23.97
2023-05-30T21:24:58.748Z,24.37
2023-05-30T21:27:27.018Z,23.24
2023-05-30T21:29:55.324Z,23.32
2023-05-30T21:32:23.446Z,23.49
2023-05-30T21:34:52.986Z,23.63
2023-05-30T21:37:21.171Z,23.70
2023-05-30T21:39:49.211Z,23.54
2023-05-30T21:42:17.124Z,24.27
2023-05-30T21:44:45.032Z,23.41
2023-05-30T21:47:13.017Z,22.75
2023-05-30T21:49:40.943Z,22.72
2023-05-30T21:52:10.564Z,22.66
2023-05-30T21:54:39.981Z,21.92
2023-05-30T21:57:09.333Z,23.02
2023-05-30T21:59:38.327Z,23.37
2023-05-30T22:02:07.831Z,22.86
2023-05-30T22:04:36.599Z,22.45
2023-05-30T22:07:07.986Z,23.17
2023-05-30T22:09:37.747Z,22.95
2023-05-30T22:12:06.704Z,22.40
2023-05-30T22:14:34.833Z,22.34
2023-05-30T22:17:02.753Z,22.43
2023-05-30T22:19:30.840Z,22.31
2023-05-30T22:24:29.507Z,22.40
2023-05-30T22:26:58.712Z,22.30
2023-05-30T22:29:26.639Z,22.20
2023-05-30T22:31:54.635Z,22.27
2023-05-30T22:34:25.520Z,21.46
2023-05-30T22:36:53.921Z,22.72
2023-05-30T22:39:21.918Z,22.77
2023-05-30T22:41:49.938Z,22.59
2023-05-30T22:44:19.353Z,22.98
2023-05-30T22:46:47.382Z,23.07
2023-05-30T22:49:15.441Z,23.26
2023-05-30T22:51:43.470Z,22.76
2023-05-30T22:54:11.338Z,23.00
2023-05-30T22:56:39.393Z,22.44
2023-05-30T22:59:07.278Z,21.96
2023-05-30T23:01:36.599Z,21.52
2023-05-30T23:04:04.618Z,21.99
2023-05-30T23:06:32.755Z,22.06
2023-05-30T23:09:00.699Z,22.32
2023-05-30T23:11:28.771Z,22.32
2023-05-30T23:13:57.053Z,22.22
2023-05-30T23:16:24.937Z,22.61
2023-05-30T23:18:54.173Z,22.61
2023-05-30T23:21:22.212Z,22.62
2023-05-30T23:23:50.068Z,22.03
2023-05-30T23:26:17.963Z,20.97
2023-05-30T23:28:45.835Z,21.17
2023-05-30T23:31:14.063Z,21.68
2023-05-30T23:33:41.925Z,22.04
2023-05-30T23:36:11.844Z,22.53
2023-05-30T23:38:40.871Z,22.18
2023-05-30T23:41:08.805Z,22.29
2023-05-30T23:43:36.701Z,22.39
2023-05-30T23:46:04.710Z,22.88
2023-05-30T23:48:32.533Z,21.96
2023-05-30T23:51:03.487Z,22.03
2023-05-30T23:53:32.885Z,21.95
2023-05-30T23:56:00.712Z,22.33
2023-05-30T23:58:28.587Z,22.34
